Time;durP1;ratioP1;P1;durP2;ratioP2;P2;SDS_P1;SDS_P2;PMS_P1;PMS_P2;Temp;Humidity;BMP_temperature;BMP_pressure;BME280_temperature;BME280_humidity;BME280_pressure;Samples;Min_cycle;Max_cycle;Signal;HPM_P1;HPM_P2
2024/04/08 00:00:26;;;;;;;8.65;3.58;;;;;;;;;;4941660;29;20040;-82
2024/04/08 00:02:52;;;;;;;8.73;3.00;;;;;;;;;;4909299;29;20366;-80
2024/04/08 00:05:19;;;;;;;13.00;3.03;;;;;;;;;;4892017;29;20439;-81
2024/04/08 00:07:45;;;;;;;6.82;2.55;;;;;;;;;;4904938;29;20108;-82
2024/04/08 00:10:11;;;;;;;13.32;2.78;;;;;;;;;;4943601;29;20114;-82
2024/04/08 00:12:40;;;;;;;6.40;2.53;;;;;;;;;;4942735;29;20039;-80
2024/04/08 00:15:07;;;;;;;8.50;2.78;;;;;;;;;;4925842;29;20635;-80
2024/04/08 00:17:33;;;;;;;5.15;2.42;;;;;;;;;;4937322;29;20035;-81
2024/04/08 00:19:59;;;;;;;5.53;2.17;;;;;;;;;;4942525;29;20051;-80
2024/04/08 00:22:25;;;;;;;11.15;3.42;;;;;;;;;;4913705;29;20032;-81
2024/04/08 00:24:51;;;;;;;8.85;3.13;;;;;;;;;;4928506;29;20036;-81
2024/04/08 00:27:17;;;;;;;8.00;3.25;;;;;;;;;;4943821;29;20067;-82
2024/04/08 00:29:42;;;;;;;10.30;2.80;;;;;;;;;;4927471;29;20032;-82
2024/04/08 00:32:08;;;;;;;9.15;2.60;;;;;;;;;;4922043;29;20067;-82
2024/04/08 00:34:34;;;;;;;9.40;3.28;;;;;;;;;;4947376;29;20040;-80
2024/04/08 00:37:00;;;;;;;12.18;3.30;;;;;;;;;;4947692;29;20122;-81
2024/04/08 00:39:26;;;;;;;6.38;2.58;;;;;;;;;;4949308;29;20035;-80
2024/04/08 00:41:51;;;;;;;8.80;2.72;;;;;;;;;;4934283;29;20066;-82
2024/04/08 00:44:17;;;;;;;5.75;2.40;;;;;;;;;;4934211;29;20047;-81
2024/04/08 00:46:43;;;;;;;9.43;2.83;;;;;;;;;;4949732;29;20020;-79
2024/04/08 00:49:09;;;;;;;9.35;2.78;;;;;;;;;;4934326;29;20031;-82
2024/04/08 00:51:35;;;;;;;10.65;3.10;;;;;;;;;;4949145;29;20074;-80
2024/04/08 00:54:01;;;;;;;6.88;2.72;;;;;;;;;;4933543;29;20432;-82
2024/04/08 00:56:27;;;;;;;6.72;2.38;;;;;;;;;;4955001;29;20031;-80
2024/04/08 00:58:53;;;;;;;8.75;3.10;;;;;;;;;;4934394;29;20067;-81
2024/04/08 01:01:19;;;;;;;10.32;3.90;;;;;;;;;;4955052;29;20028;-81
2024/04/08 01:03:45;;;;;;;6.82;2.65;;;;;;;;;;4931812;29;20091;-82
2024/04/08 01:06:13;;;;;;;7.05;2.40;;;;;;;;;;4959171;29;20103;-82
2024/04/08 01:08:39;;;;;;;9.07;2.95;;;;;;;;;;4952861;29;20119;-82
2024/04/08 01:11:07;;;;;;;6.60;2.90;;;;;;;;;;4945367;29;20115;-82
2024/04/08 01:13:32;;;;;;;8.63;2.80;;;;;;;;;;4946498;29;20038;-81
2024/04/08 01:15:59;;;;;;;9.43;3.03;;;;;;;;;;4960789;29;20032;-81
2024/04/08 01:18:25;;;;;;;7.40;2.80;;;;;;;;;;4941814;29;20044;-82
2024/04/08 01:20:51;;;;;;;8.63;2.90;;;;;;;;;;4958578;29;20068;-81
2024/04/08 01:23:18;;;;;;;11.50;3.33;;;;;;;;;;4927418;29;20040;-82
2024/04/08 01:25:44;;;;;;;5.55;2.90;;;;;;;;;;4926813;29;20055;-81
2024/04/08 01:28:10;;;;;;;8.93;2.88;;;;;;;;;;4920908;29;20052;-81
2024/04/08 01:30:36;;;;;;;7.82;2.60;;;;;;;;;;4951969;29;20236;-81
2024/04/08 01:33:02;;;;;;;10.57;3.00;;;;;;;;;;4931327;29;20031;-81
2024/04/08 01:35:27;;;;;;;9.23;2.63;;;;;;;;;;4953116;29;20028;-80
2024/04/08 01:37:53;;;;;;;6.30;2.83;;;;;;;;;;4937616;29;20047;-80
2024/04/08 01:40:18;;;;;;;6.13;2.75;;;;;;;;;;4933843;29;20126;-81
2024/04/08 01:42:44;;;;;;;7.85;2.83;;;;;;;;;;4948773;29;20043;-81
2024/04/08 01:45:10;;;;;;;10.30;3.15;;;;;;;;;;4948013;29;20036;-81
2024/04/08 01:47:35;;;;;;;8.75;2.75;;;;;;;;;;4947909;29;20031;-81
2024/04/08 01:50:02;;;;;;;6.93;2.50;;;;;;;;;;4932883;29;20027;-81
2024/04/08 01:52:27;;;;;;;8.35;2.65;;;;;;;;;;4949781;29;20107;-81
2024/04/08 01:54:53;;;;;;;7.20;2.58;;;;;;;;;;4942444;29;20491;-80
2024/04/08 01:57:19;;;;;;;9.43;2.47;;;;;;;;;;4947444;29;20032;-81
2024/04/08 01:59:44;;;;;;;8.25;2.60;;;;;;;;;;4947459;29;20043;-80
2024/04/08 02:02:10;;;;;;;11.90;2.85;;;;;;;;;;4931673;29;20035;-81
2024/04/08 02:04:35;;;;;;;8.48;2.63;;;;;;;;;;4929624;29;20479;-81
2024/04/08 02:07:02;;;;;;;9.90;3.22;;;;;;;;;;4929408;29;20038;-80
2024/04/08 02:09:27;;;;;;;8.02;3.05;;;;;;;;;;4944553;29;20035;-80
2024/04/08 02:11:53;;;;;;;9.43;2.47;;;;;;;;;;4911975;29;20034;-80
2024/04/08 02:14:19;;;;;;;7.28;2.72;;;;;;;;;;4944139;29;20126;-80
2024/04/08 02:16:45;;;;;;;7.78;2.67;;;;;;;;;;4924834;29;20036;-81
2024/04/08 02:19:10;;;;;;;7.97;2.78;;;;;;;;;;4928685;29;20044;-82
2024/04/08 02:21:36;;;;;;;8.30;3.60;;;;;;;;;;4929374;29;20506;-82
2024/04/08 02:24:02;;;;;;;10.48;2.88;;;;;;;;;;4928673;29;20545;-81
2024/04/08 02:26:28;;;;;;;12.60;2.72;;;;;;;;;;4927524;29;20087;-82
2024/04/08 02:28:57;;;;;;;11.10;2.78;;;;;;;;;;4927282;29;20031;-81
2024/04/08 02:31:22;;;;;;;;;;;;;;;;;;4929226;29;20547;-81
2024/04/08 02:33:48;;;;;;;8.35;3.13;;;;;;;;;;4928932;29;19922;-80
2024/04/08 02:36:14;;;;;;;11.32;2.78;;;;;;;;;;4925299;29;20479;-82
2024/04/08 02:38:39;;;;;;;9.52;3.25;;;;;;;;;;4933226;29;20036;-81
2024/04/08 02:41:05;;;;;;;10.25;2.60;;;;;;;;;;4933979;29;20050;-80
2024/04/08 02:43:31;;;;;;;10.43;3.25;;;;;;;;;;4919605;29;20043;-81
2024/04/08 02:45:57;;;;;;;10.15;2.83;;;;;;;;;;4936125;29;20067;-81
2024/04/08 02:48:23;;;;;;;12.80;4.40;;;;;;;;;;4936618;29;20055;-81
2024/04/08 02:50:51;;;;;;;7.93;3.08;;;;;;;;;;4938318;29;20024;-81
2024/04/08 02:53:16;;;;;;;8.30;3.25;;;;;;;;;;4938922;29;20028;-81
2024/04/08 02:55:42;;;;;;;11.48;3.00;;;;;;;;;;4925184;29;20039;-80
2024/04/08 02:58:08;;;;;;;11.77;4.10;;;;;;;;;;4909952;29;20074;-81
2024/04/08 03:00:37;;;;;;;12.10;5.20;;;;;;;;;;4942507;29;20131;-81
2024/04/08 03:03:03;;;;;;;14.70;4.60;;;;;;;;;;4927447;29;20034;-81
2024/04/08 03:05:29;;;;;;;6.88;3.60;;;;;;;;;;4910420;29;20032;-82
2024/04/08 03:07:55;;;;;;;10.95;3.40;;;;;;;;;;4942152;29;20031;-80
2024/04/08 03:10:20;;;;;;;15.13;5.93;;;;;;;;;;4917616;29;20062;-80
2024/04/08 03:12:46;;;;;;;8.63;4.10;;;;;;;;;;4946839;29;20055;-81
2024/04/08 03:15:11;;;;;;;7.38;3.95;;;;;;;;;;4933756;29;20107;-80
2024/04/08 03:17:37;;;;;;;10.35;3.35;;;;;;;;;;4945081;29;20039;-82
2024/04/08 03:20:04;;;;;;;11.23;3.17;;;;;;;;;;4931385;29;20035;-81
2024/04/08 03:22:30;;;;;;;13.35;3.05;;;;;;;;;;4934327;29;20107;-82
2024/04/08 03:24:55;;;;;;;13.20;4.60;;;;;;;;;;4953020;29;20036;-82
2024/04/08 03:27:21;;;;;;;12.00;4.78;;;;;;;;;;4964109;28;20044;-81
2024/04/08 03:29:47;;;;;;;17.88;4.28;;;;;;;;;;4927093;29;20015;-80
2024/04/08 03:32:13;;;;;;;13.63;3.40;;;;;;;;;;4942231;29;20032;-81
2024/04/08 03:34:38;;;;;;;7.00;3.33;;;;;;;;;;4942314;29;20048;-81
2024/04/08 03:37:04;;;;;;;16.42;3.75;;;;;;;;;;4943272;29;20054;-80
2024/04/08 03:39:29;;;;;;;8.30;3.70;;;;;;;;;;4912482;29;20042;-81
2024/04/08 03:41:58;;;;;;;14.55;2.90;;;;;;;;;;4943886;29;20067;-80
2024/04/08 03:44:23;;;;;;;9.00;3.35;;;;;;;;;;4925439;29;20479;-82
2024/04/08 03:46:49;;;;;;;9.98;3.03;;;;;;;;;;4926770;29;20038;-81
2024/04/08 03:49:15;;;;;;;7.97;2.90;;;;;;;;;;4930707;29;20039;-81
2024/04/08 03:51:41;;;;;;;12.60;3.08;;;;;;;;;;4925415;29;20154;-80
2024/04/08 03:54:07;;;;;;;8.95;3.13;;;;;;;;;;4940768;29;20039;-81
2024/04/08 03:56:33;;;;;;;6.57;3.05;;;;;;;;;;4926250;29;20046;-81
2024/04/08 03:59:02;;;;;;;9.73;3.80;;;;;;;;;;4905821;29;20031;-81
2024/04/08 04:01:28;;;;;;;16.02;3.20;;;;;;;;;;4911135;29;20032;-80
2024/04/08 04:03:53;;;;;;;5.28;2.45;;;;;;;;;;4909647;29;20070;-81
2024/04/08 04:06:19;;;;;;;9.63;2.53;;;;;;;;;;4923115;29;20028;-81
2024/04/08 04:08:44;;;;;;;29.45;4.03;;;;;;;;;;4923041;29;20583;-82
2024/04/08 04:11:10;;;;;;;8.25;2.63;;;;;;;;;;4940161;29;20058;-83
2024/04/08 04:13:36;;;;;;;11.43;2.60;;;;;;;;;;4928627;29;20479;-81
2024/04/08 04:16:03;;;;;;;13.05;2.42;;;;;;;;;;4927290;29;20471;-80
2024/04/08 04:18:29;;;;;;;7.88;2.25;;;;;;;;;;4931280;29;20496;-81
2024/04/08 04:20:56;;;;;;;11.82;2.00;;;;;;;;;;4927270;29;20032;-81
2024/04/08 04:23:23;;;;;;;7.38;2.03;;;;;;;;;;4925532;29;20076;-81
2024/04/08 04:25:53;;;;;;;11.27;4.15;;;;;;;;;;4941196;29;20042;-81
2024/04/08 04:28:20;;;;;;;9.25;2.67;;;;;;;;;;4922543;29;20024;-80
2024/04/08 04:30:52;;;;;;;15.80;3.30;;;;;;;;;;4934199;29;20376;-81
2024/04/08 04:33:18;;;;;;;13.07;2.30;;;;;;;;;;4907052;29;20104;-82
2024/04/08 04:35:53;;;;;;;13.30;2.10;;;;;;;;;;4942249;29;20055;-82
2024/04/08 04:38:19;;;;;;;12.75;3.08;;;;;;;;;;4922483;29;20040;-81
2024/04/08 04:40:45;;;;;;;12.75;2.70;;;;;;;;;;4948912;29;20038;-82
2024/04/08 04:43:11;;;;;;;13.55;3.70;;;;;;;;;;4916085;29;20036;-82
2024/04/08 04:45:36;;;;;;;10.35;2.63;;;;;;;;;;4925215;29;20094;-82
2024/04/08 04:48:02;;;;;;;14.32;2.90;;;;;;;;;;4910605;29;20031;-82
2024/04/08 04:50:30;;;;;;;13.07;2.70;;;;;;;;;;4926580;29;20499;-81
2024/04/08 04:52:55;;;;;;;16.95;2.65;;;;;;;;;;4909297;29;20226;-81
2024/04/08 04:55:21;;;;;;;16.25;2.83;;;;;;;;;;4953405;29;20063;-80
2024/04/08 04:57:46;;;;;;;12.98;3.40;;;;;;;;;;4926573;29;20492;-82
2024/04/08 05:00:12;;;;;;;13.02;2.55;;;;;;;;;;4941675;29;20035;-82
2024/04/08 05:02:38;;;;;;;9.02;2.70;;;;;;;;;;4943232;29;20038;-81
2024/04/08 05:05:04;;;;;;;14.10;2.30;;;;;;;;;;4927372;29;20487;-81
2024/04/08 05:07:29;;;;;;;10.52;2.50;;;;;;;;;;4942162;29;20400;-82
2024/04/08 05:09:57;;;;;;;8.35;2.28;;;;;;;;;;4940566;29;20079;-81
2024/04/08 05:12:22;;;;;;;15.23;2.90;;;;;;;;;;4943351;29;20038;-82
2024/04/08 05:14:48;;;;;;;11.30;2.30;;;;;;;;;;4941450;29;20039;-81
2024/04/08 05:17:13;;;;;;;12.60;2.63;;;;;;;;;;4939093;29;20157;-81
2024/04/08 05:19:39;;;;;;;13.20;2.72;;;;;;;;;;4932745;29;20024;-83
2024/04/08 05:22:05;;;;;;;12.55;2.47;;;;;;;;;;4899851;29;20035;-82
2024/04/08 05:24:30;;;;;;;8.35;2.35;;;;;;;;;;4935496;29;20051;-82
2024/04/08 05:26:56;;;;;;;13.40;2.67;;;;;;;;;;4930763;29;20038;-82
2024/04/08 05:29:25;;;;;;;16.40;3.05;;;;;;;;;;4929360;29;20039;-81
2024/04/08 05:31:50;;;;;;;15.80;3.55;;;;;;;;;;4950978;29;20035;-82
2024/04/08 05:34:16;;;;;;;10.68;2.90;;;;;;;;;;4947477;29;20046;-82
2024/04/08 05:36:42;;;;;;;19.33;4.60;;;;;;;;;;4932569;29;20099;-81
2024/04/08 05:39:07;;;;;;;13.93;2.70;;;;;;;;;;4944889;29;20055;-81
2024/04/08 05:41:33;;;;;;;11.15;3.20;;;;;;;;;;4908080;29;20387;-81
2024/04/08 05:43:58;;;;;;;10.50;2.60;;;;;;;;;;4925846;29;20059;-81
2024/04/08 05:46:24;;;;;;;12.63;2.88;;;;;;;;;;4925542;29;20028;-82
2024/04/08 05:48:50;;;;;;;19.48;3.03;;;;;;;;;;4914414;29;20429;-81
2024/04/08 05:51:16;;;;;;;23.08;2.70;;;;;;;;;;4911117;29;20028;-80
2024/04/08 05:53:42;;;;;;;12.38;3.08;;;;;;;;;;4942470;29;20062;-82
2024/04/08 05:56:07;;;;;;;13.27;3.70;;;;;;;;;;4931476;29;20027;-81
2024/04/08 05:58:34;;;;;;;16.98;3.92;;;;;;;;;;4948792;29;20043;-81
2024/04/08 06:01:00;;;;;;;12.18;2.95;;;;;;;;;;4939139;29;20044;-82
2024/04/08 06:03:26;;;;;;;12.52;3.40;;;;;;;;;;4933765;29;20099;-81
2024/04/08 06:05:51;;;;;;;12.32;3.20;;;;;;;;;;4934876;29;20064;-81
2024/04/08 06:08:17;;;;;;;13.95;2.85;;;;;;;;;;4937816;29;20110;-81
2024/04/08 06:10:50;;;;;;;15.25;3.20;;;;;;;;;;4913149;29;20040;-80
2024/04/08 06:13:16;;;;;;;14.07;4.15;;;;;;;;;;4892635;29;20092;-82
2024/04/08 06:15:41;;;;;;;13.73;2.95;;;;;;;;;;4908059;29;20088;-80
2024/04/08 06:18:07;;;;;;;15.13;3.40;;;;;;;;;;4908741;29;20132;-81
2024/04/08 06:20:33;;;;;;;13.35;3.35;;;;;;;;;;4920806;29;20499;-79
2024/04/08 06:23:00;;;;;;;12.35;3.50;;;;;;;;;;4943036;29;20039;-81
2024/04/08 06:25:26;;;;;;;11.68;2.97;;;;;;;;;;4925707;29;20042;-80
2024/04/08 06:27:51;;;;;;;12.35;3.00;;;;;;;;;;4927243;29;20028;-82
2024/04/08 06:30:17;;;;;;;14.73;3.70;;;;;;;;;;4957758;29;20032;-82
2024/04/08 06:32:49;;;;;;;9.80;3.15;;;;;;;;;;4910195;29;20024;-82
2024/04/08 06:35:16;;;;;;;14.60;3.35;;;;;;;;;;4913396;29;20127;-82
2024/04/08 06:37:42;;;;;;;16.20;3.92;;;;;;;;;;4927155;29;20031;-80
2024/04/08 06:40:09;;;;;;;9.75;3.53;;;;;;;;;;4937017;29;20032;-81
2024/04/08 06:42:35;;;;;;;13.82;3.55;;;;;;;;;;4945623;29;20059;-82
2024/04/08 06:45:01;;;;;;;14.90;4.40;;;;;;;;;;4924373;29;20424;-81
2024/04/08 06:47:27;;;;;;;13.27;3.90;;;;;;;;;;4926252;29;20123;-81
2024/04/08 06:49:53;;;;;;;15.43;3.53;;;;;;;;;;4941012;29;20027;-81
2024/04/08 06:52:19;;;;;;;15.95;4.40;;;;;;;;;;4919328;29;20032;-81
2024/04/08 06:54:45;;;;;;;14.57;4.28;;;;;;;;;;4927122;29;20055;-80
2024/04/08 06:57:11;;;;;;;12.10;4.00;;;;;;;;;;4925898;29;20095;-83
2024/04/08 06:59:37;;;;;;;19.98;4.22;;;;;;;;;;4937014;29;20036;-83
2024/04/08 07:02:04;;;;;;;20.70;3.95;;;;;;;;;;4924367;29;20027;-82
2024/04/08 07:04:30;;;;;;;12.98;4.30;;;;;;;;;;4924846;29;20040;-81
2024/04/08 07:06:56;;;;;;;15.63;4.10;;;;;;;;;;4929313;29;20039;-82
2024/04/08 07:09:25;;;;;;;13.88;3.83;;;;;;;;;;4941954;29;20108;-82
2024/04/08 07:11:51;;;;;;;14.60;4.38;;;;;;;;;;4925420;29;20035;-82
2024/04/08 07:14:17;;;;;;;16.70;4.82;;;;;;;;;;4922126;29;20032;-82
2024/04/08 07:16:45;;;;;;;11.95;4.22;;;;;;;;;;4907298;29;20035;-82
2024/04/08 07:19:10;;;;;;;17.83;7.30;;;;;;;;;;4930947;29;20056;-80
2024/04/08 07:21:37;;;;;;;15.65;4.65;;;;;;;;;;4941575;28;20032;-81
2024/04/08 07:24:02;;;;;;;15.77;4.93;;;;;;;;;;4922714;29;20087;-82
2024/04/08 07:26:32;;;;;;;13.23;4.00;;;;;;;;;;4940313;29;20040;-82
2024/04/08 07:28:58;;;;;;;9.20;4.70;;;;;;;;;;4942465;29;20046;-82
2024/04/08 07:31:24;;;;;;;15.93;4.40;;;;;;;;;;4910392;29;20032;-81
2024/04/08 07:33:50;;;;;;;9.18;4.07;;;;;;;;;;4924956;29;20024;-82
2024/04/08 07:36:15;;;;;;;12.77;4.18;;;;;;;;;;4938381;29;20039;-80
2024/04/08 07:38:41;;;;;;;12.60;7.10;;;;;;;;;;4923571;29;20042;-79
2024/04/08 07:41:07;;;;;;;15.35;5.60;;;;;;;;;;4901606;29;20028;-80
2024/04/08 07:43:34;;;;;;;9.68;4.40;;;;;;;;;;4916463;29;20063;-81
2024/04/08 07:46:00;;;;;;;13.10;4.32;;;;;;;;;;4926182;29;20123;-81
2024/04/08 07:48:26;;;;;;;10.60;5.05;;;;;;;;;;4915773;29;20024;-81
2024/04/08 07:50:52;;;;;;;14.45;4.22;;;;;;;;;;4940928;29;20028;-80
2024/04/08 07:53:17;;;;;;;18.83;4.40;;;;;;;;;;4925233;29;20552;-80
2024/04/08 07:55:44;;;;;;;13.27;4.38;;;;;;;;;;4925664;29;20024;-80
2024/04/08 07:58:09;;;;;;;12.30;4.00;;;;;;;;;;4940662;29;20095;-81
2024/04/08 08:00:36;;;;;;;9.98;3.95;;;;;;;;;;4943269;29;20034;-81
2024/04/08 08:03:02;;;;;;;7.22;3.97;;;;;;;;;;4908386;29;20042;-82
2024/04/08 08:05:28;;;;;;;12.63;4.20;;;;;;;;;;4938589;29;20071;-80
2024/04/08 08:07:53;;;;;;;10.30;4.25;;;;;;;;;;4913046;29;20035;-80
2024/04/08 08:10:19;;;;;;;24.20;5.15;;;;;;;;;;4936403;29;20024;-81
2024/04/08 08:12:45;;;;;;;13.90;4.15;;;;;;;;;;4908358;29;20028;-81
2024/04/08 08:15:10;;;;;;;11.20;4.30;;;;;;;;;;4901185;29;20046;-81
2024/04/08 08:17:36;;;;;;;15.32;4.55;;;;;;;;;;4939371;29;20032;-82
2024/04/08 08:20:04;;;;;;;12.60;4.05;;;;;;;;;;4911083;29;20038;-81
2024/04/08 08:22:30;;;;;;;13.60;4.18;;;;;;;;;;4922831;29;20117;-80
2024/04/08 08:24:56;;;;;;;14.43;4.18;;;;;;;;;;4926284;29;20028;-81
2024/04/08 08:27:21;;;;;;;18.88;4.68;;;;;;;;;;4931582;29;20100;-80
2024/04/08 08:29:49;;;;;;;11.85;4.00;;;;;;;;;;4928247;29;20023;-80
2024/04/08 08:32:15;;;;;;;10.07;3.77;;;;;;;;;;4939810;29;20043;-81
2024/04/08 08:34:40;;;;;;;16.50;4.35;;;;;;;;;;4923154;29;20039;-81
2024/04/08 08:37:06;;;;;;;14.30;4.32;;;;;;;;;;4945258;29;20249;-81
2024/04/08 08:39:37;;;;;;;15.90;4.43;;;;;;;;;;4932598;29;20492;-83
2024/04/08 08:42:14;;;;;;;14.75;4.00;;;;;;;;;;4937974;29;20507;-82
2024/04/08 08:44:43;;;;;;;13.38;3.55;;;;;;;;;;4915996;29;20032;-82
2024/04/08 08:47:09;;;;;;;11.50;3.40;;;;;;;;;;4916956;29;20038;-81
2024/04/08 08:49:35;;;;;;;15.45;3.50;;;;;;;;;;4934721;29;20032;-82
2024/04/08 08:52:02;;;;;;;13.45;3.30;;;;;;;;;;4932593;29;20031;-83
2024/04/08 08:54:28;;;;;;;10.18;2.90;;;;;;;;;;4922889;29;20059;-83
2024/04/08 08:56:54;;;;;;;10.30;2.65;;;;;;;;;;4929076;29;20039;-82
2024/04/08 08:59:20;;;;;;;17.40;3.10;;;;;;;;;;4957950;28;20131;-82
2024/04/08 09:01:45;;;;;;;16.88;4.20;;;;;;;;;;4950299;29;20042;-82
2024/04/08 09:04:14;;;;;;;11.93;2.63;;;;;;;;;;4921252;29;20071;-82
2024/04/08 09:06:51;;;;;;;17.27;4.20;;;;;;;;;;4935358;29;20031;-82
2024/04/08 09:09:17;;;;;;;13.38;2.92;;;;;;;;;;4930229;29;20028;-82
2024/04/08 09:11:49;;;;;;;13.70;2.97;;;;;;;;;;4942656;29;20043;-81
2024/04/08 09:14:15;;;;;;;20.77;3.28;;;;;;;;;;4954333;29;20035;-82
2024/04/08 09:16:42;;;;;;;21.30;4.00;;;;;;;;;;4939356;29;20060;-81
2024/04/08 09:19:08;;;;;;;13.82;3.15;;;;;;;;;;4944594;29;20036;-81
2024/04/08 09:21:34;;;;;;;14.15;3.15;;;;;;;;;;4924858;29;20096;-81
2024/04/08 09:24:02;;;;;;;;;;;;;;;;;;4911093;29;20040;-81
2024/04/08 09:26:28;;;;;;;20.40;3.53;;;;;;;;;;4945019;29;20381;-82
2024/04/08 09:28:54;;;;;;;18.73;3.50;;;;;;;;;;4925943;29;20063;-82
2024/04/08 09:31:20;;;;;;;18.48;3.45;;;;;;;;;;4912605;29;20114;-81
2024/04/08 09:33:46;;;;;;;21.30;2.90;;;;;;;;;;4930526;29;20039;-82
2024/04/08 09:36:13;;;;;;;18.58;2.90;;;;;;;;;;4931175;29;20483;-82
2024/04/08 09:38:40;;;;;;;18.65;3.42;;;;;;;;;;4929914;29;20462;-82
2024/04/08 09:41:07;;;;;;;17.42;3.10;;;;;;;;;;4915091;29;20035;-81
2024/04/08 09:43:33;;;;;;;13.50;3.08;;;;;;;;;;4930785;29;20027;-83
2024/04/08 09:45:59;;;;;;;15.57;3.03;;;;;;;;;;4933833;29;20051;-83
2024/04/08 09:48:25;;;;;;;13.48;2.97;;;;;;;;;;4935621;29;20031;-84
2024/04/08 09:50:51;;;;;;;14.85;2.70;;;;;;;;;;4934320;29;20260;-83
2024/04/08 09:53:17;;;;;;;20.25;2.85;;;;;;;;;;4939172;29;20503;-84
2024/04/08 09:55:45;;;;;;;21.17;4.07;;;;;;;;;;4917430;29;20523;-84
2024/04/08 09:58:13;;;;;;;19.50;3.40;;;;;;;;;;4953579;29;20637;-85
2024/04/08 10:00:40;;;;;;;9.63;2.70;;;;;;;;;;4938227;29;20046;-84
2024/04/08 10:03:10;;;;;;;19.90;3.78;;;;;;;;;;4940084;29;20039;-84
2024/04/08 10:05:38;;;;;;;18.70;2.38;;;;;;;;;;4956908;29;20027;-83
2024/04/08 10:08:04;;;;;;;24.52;3.67;;;;;;;;;;4931901;29;20026;-84
2024/04/08 10:10:31;;;;;;;17.52;2.80;;;;;;;;;;4954267;29;20024;-84
2024/04/08 10:12:58;;;;;;;14.75;2.40;;;;;;;;;;4954330;29;20035;-85
2024/04/08 10:15:33;;;;;;;17.77;4.07;;;;;;;;;;4940735;29;20036;-82
2024/04/08 10:18:03;;;;;;;17.00;3.10;;;;;;;;;;4946393;29;20040;-83
2024/04/08 10:20:29;;;;;;;26.35;4.32;;;;;;;;;;4948916;29;20063;-83
2024/04/08 10:22:55;;;;;;;13.82;2.97;;;;;;;;;;4925486;29;20040;-83
2024/04/08 10:25:36;;;;;;;16.02;2.58;;;;;;;;;;4942429;29;20122;-81
2024/04/08 10:28:19;;;;;;;13.90;3.15;;;;;;;;;;4928958;29;20043;-82
2024/04/08 10:30:48;;;;;;;23.05;3.15;;;;;;;;;;4943432;29;20043;-83
2024/04/08 10:33:14;;;;;;;22.25;3.17;;;;;;;;;;4943496;29;20024;-81
2024/04/08 10:35:40;;;;;;;32.33;3.70;;;;;;;;;;4942830;29;20036;-83
2024/04/08 10:38:06;;;;;;;20.42;3.08;;;;;;;;;;4927469;29;20090;-82
2024/04/08 10:40:32;;;;;;;15.98;2.88;;;;;;;;;;4927174;29;20519;-81
2024/04/08 10:42:58;;;;;;;20.00;3.13;;;;;;;;;;4943580;29;20024;-83
2024/04/08 10:45:24;;;;;;;14.02;2.15;;;;;;;;;;4928415;29;20395;-82
2024/04/08 10:47:55;;;;;;;13.23;3.28;;;;;;;;;;4919861;29;20063;-82
2024/04/08 10:50:21;;;;;;;14.55;2.40;;;;;;;;;;4929015;29;20100;-83
2024/04/08 10:52:47;;;;;;;10.40;2.53;;;;;;;;;;4952517;29;20028;-83
2024/04/08 10:55:12;;;;;;;18.80;3.20;;;;;;;;;;4932849;29;20031;-82
2024/04/08 10:57:38;;;;;;;8.93;2.28;;;;;;;;;;4936886;29;20047;-84
2024/04/08 11:00:07;;;;;;;16.65;2.63;;;;;;;;;;4938062;29;20046;-83
2024/04/08 11:02:34;;;;;;;12.00;2.40;;;;;;;;;;4925017;29;20108;-82
2024/04/08 11:05:00;;;;;;;10.75;2.00;;;;;;;;;;4943424;29;20115;-83
2024/04/08 11:07:29;;;;;;;14.05;2.30;;;;;;;;;;4934298;29;20602;-81
2024/04/08 11:09:54;;;;;;;9.48;2.03;;;;;;;;;;4937315;29;20467;-80
2024/04/08 11:12:20;;;;;;;16.30;2.90;;;;;;;;;;4949161;29;20124;-84
2024/04/08 11:14:48;;;;;;;11.15;2.20;;;;;;;;;;4943958;29;20110;-82
2024/04/08 11:17:15;;;;;;;12.63;2.95;;;;;;;;;;4925192;29;20040;-82
2024/04/08 11:19:44;;;;;;;10.18;2.22;;;;;;;;;;4925088;29;20063;-82
2024/04/08 11:22:09;;;;;;;16.10;2.72;;;;;;;;;;4912029;29;20031;-82
2024/04/08 11:24:41;;;;;;;17.13;2.58;;;;;;;;;;4944863;29;20027;-83
2024/04/08 11:27:12;;;;;;;15.82;2.60;;;;;;;;;;4944774;29;20083;-84
2024/04/08 11:29:44;;;;;;;16.17;2.78;;;;;;;;;;4931223;29;20647;-82
2024/04/08 11:32:13;;;;;;;14.65;3.13;;;;;;;;;;4941744;29;20032;-82
2024/04/08 11:34:39;;;;;;;19.02;2.55;;;;;;;;;;4913026;29;20032;-84
2024/04/08 11:37:08;;;;;;;14.80;2.65;;;;;;;;;;4941751;28;20035;-84
2024/04/08 11:39:33;;;;;;;21.08;2.95;;;;;;;;;;4945669;29;20055;-84
2024/04/08 11:42:00;;;;;;;15.63;2.83;;;;;;;;;;4914014;29;20035;-83
2024/04/08 11:44:33;;;;;;;17.23;3.08;;;;;;;;;;4929751;29;20495;-83
2024/04/08 11:47:01;;;;;;;12.90;2.40;;;;;;;;;;4924949;29;20035;-84
2024/04/08 11:49:27;;;;;;;22.20;3.42;;;;;;;;;;4937529;29;20097;-83
2024/04/08 11:51:54;;;;;;;19.77;3.17;;;;;;;;;;4957088;29;20047;-83
2024/04/08 11:54:20;;;;;;;27.35;3.65;;;;;;;;;;4955008;29;20032;-80
2024/04/08 11:56:47;;;;;;;42.10;4.18;;;;;;;;;;4944756;29;20032;-83
2024/04/08 11:59:12;;;;;;;17.90;2.80;;;;;;;;;;4939621;29;20043;-82
2024/04/08 12:01:40;;;;;;;22.83;3.50;;;;;;;;;;4949416;29;20031;-82
2024/04/08 12:04:06;;;;;;;;;;;;;;;;;;4956552;29;20036;-82
2024/04/08 12:06:31;;;;;;;22.27;2.97;;;;;;;;;;4941430;29;19929;-81
2024/04/08 12:08:57;;;;;;;24.38;3.67;;;;;;;;;;4944121;29;20035;-83
2024/04/08 12:11:24;;;;;;;22.15;3.97;;;;;;;;;;4932632;29;20035;-83
2024/04/08 12:13:50;;;;;;;20.90;3.63;;;;;;;;;;4918572;29;20039;-81
2024/04/08 12:16:16;;;;;;;18.92;3.20;;;;;;;;;;4935662;29;20036;-81
2024/04/08 12:18:44;;;;;;;17.65;3.33;;;;;;;;;;4923875;29;20038;-82
2024/04/08 12:21:10;;;;;;;19.85;3.47;;;;;;;;;;4924101;29;20114;-84
2024/04/08 12:23:36;;;;;;;15.98;3.65;;;;;;;;;;4909114;29;20066;-83
2024/04/08 12:26:02;;;;;;;23.25;3.97;;;;;;;;;;4943796;29;20066;-83
2024/04/08 12:30:29;;;;;;;17.35;3.72;;;;;;;;;;5486615;25;20478;-84
2024/04/08 12:32:55;;;;;;;18.92;3.20;;;;;;;;;;5455406;26;20018;-81
2024/04/08 12:35:21;;;;;;;22.83;3.67;;;;;;;;;;5402270;26;20002;-81
2024/04/08 12:37:48;;;;;;;20.00;3.42;;;;;;;;;;5451964;26;20225;-82
2024/04/08 12:40:15;;;;;;;17.70;4.65;;;;;;;;;;5422883;26;19995;-81
2024/04/08 12:42:41;;;;;;;25.25;3.45;;;;;;;;;;5454952;26;20003;-83
2024/04/08 12:45:08;;;;;;;24.40;3.13;;;;;;;;;;5444550;26;20019;-83
2024/04/08 12:47:34;;;;;;;22.05;4.10;;;;;;;;;;5411164;26;20008;-84
2024/04/08 12:49:59;;;;;;;16.40;3.15;;;;;;;;;;5411813;26;20030;-83
2024/04/08 12:52:25;;;;;;;25.75;3.97;;;;;;;;;;5384109;26;20016;-83
2024/04/08 12:54:51;;;;;;;22.67;4.32;;;;;;;;;;5385007;26;20004;-82
2024/04/08 12:57:17;;;;;;;26.42;4.78;;;;;;;;;;5380887;26;20000;-83
2024/04/08 12:59:43;;;;;;;23.65;3.92;;;;;;;;;;5415434;26;20008;-80
2024/04/08 13:02:08;;;;;;;19.73;4.00;;;;;;;;;;5355753;26;20015;-83
2024/04/08 13:04:34;;;;;;;24.88;4.03;;;;;;;;;;5383126;26;20004;-82
2024/04/08 13:07:00;;;;;;;28.05;4.18;;;;;;;;;;5412164;26;20011;-82
2024/04/08 13:09:26;;;;;;;24.35;3.47;;;;;;;;;;5412740;26;20011;-82
2024/04/08 13:11:52;;;;;;;21.63;3.13;;;;;;;;;;5412750;26;20004;-83
2024/04/08 13:14:18;;;;;;;27.67;4.30;;;;;;;;;;5381357;26;20068;-83
2024/04/08 13:16:44;;;;;;;24.40;4.53;;;;;;;;;;5414974;26;20004;-82
2024/04/08 13:19:11;;;;;;;25.40;3.42;;;;;;;;;;5414736;26;20004;-82
2024/04/08 13:21:37;;;;;;;28.23;3.78;;;;;;;;;;5396609;26;20016;-81
2024/04/08 13:24:03;;;;;;;16.77;4.00;;;;;;;;;;5437946;26;20000;-82
2024/04/08 13:26:31;;;;;;;16.98;3.45;;;;;;;;;;5413728;26;20017;-83
2024/04/08 13:29:00;;;;;;;25.90;4.18;;;;;;;;;;5385759;26;20008;-81
2024/04/08 13:31:26;;;;;;;;;;;;;;;;;;5353368;26;20035;-83
2024/04/08 13:33:51;;;;;;;20.92;3.10;;;;;;;;;;5441166;26;19925;-84
2024/04/08 13:36:17;;;;;;;20.05;4.13;;;;;;;;;;5379640;26;20008;-82
2024/04/08 13:38:42;;;;;;;30.20;4.40;;;;;;;;;;5386776;26;20008;-82
2024/04/08 13:41:08;;;;;;;29.35;3.83;;;;;;;;;;5377484;26;20016;-84
2024/04/08 13:43:34;;;;;;;22.08;3.90;;;;;;;;;;5455673;26;20011;-82
2024/04/08 13:46:00;;;;;;;19.85;3.90;;;;;;;;;;5400944;26;20404;-83
2024/04/08 13:48:27;;;;;;;25.52;3.92;;;;;;;;;;5431328;26;20007;-84
2024/04/08 13:50:54;;;;;;;22.63;4.00;;;;;;;;;;5396076;26;20019;-81
2024/04/08 13:53:20;;;;;;;28.13;3.65;;;;;;;;;;5404313;26;20011;-81
2024/04/08 13:56:02;;;;;;;26.20;3.33;;;;;;;;;;5402154;26;20015;-82
2024/04/08 13:58:29;;;;;;;24.35;3.05;;;;;;;;;;5394577;26;20004;-83
2024/04/08 14:00:55;;;;;;;18.40;4.05;;;;;;;;;;5395460;26;20016;-81
2024/04/08 14:03:21;;;;;;;23.35;3.75;;;;;;;;;;5429893;26;20082;-82
2024/04/08 14:05:51;;;;;;;19.15;4.13;;;;;;;;;;5459676;26;20012;-82
2024/04/08 14:08:19;;;;;;;20.25;3.75;;;;;;;;;;5401526;26;20069;-82
2024/04/08 14:10:45;;;;;;;28.88;3.47;;;;;;;;;;5386076;26;20040;-83
2024/04/08 14:13:11;;;;;;;25.50;3.85;;;;;;;;;;5402459;26;20008;-83
2024/04/08 14:15:37;;;;;;;15.45;4.00;;;;;;;;;;5379498;26;20019;-84
2024/04/08 14:18:03;;;;;;;25.15;4.03;;;;;;;;;;5365739;26;20023;-83
2024/04/08 14:20:30;;;;;;;21.02;5.05;;;;;;;;;;5382323;26;20004;-82
2024/04/08 14:22:59;;;;;;;24.60;3.92;;;;;;;;;;5432029;26;20011;-83
2024/04/08 14:25:29;;;;;;;19.75;3.83;;;;;;;;;;5366067;26;20011;-83
2024/04/08 14:27:56;;;;;;;26.35;4.28;;;;;;;;;;5425659;26;20141;-82
2024/04/08 14:30:22;;;;;;;20.17;3.92;;;;;;;;;;5396378;26;20069;-83